Strona główna
METAR-TAF:

METAR-TAF

Lotnisko :

La Chaux-de-Fonds, Szwajcaria

Szerokość geograficzna: 47-05-03N, Długość geograficzna: 006-47-37E, wysokość: 1027 m

Aktualna obserwacja pogody

Raport powstał 36 minut temu, godzina 08:20 UTC
Wiatr 5 kt od wschód, zmienny między północno-północny wschód i południowo-południowy wschód
Temperatura 15°C
Wilgotność 44%
Ciśnienie 1029 hPa
Widzialność 10 km lub więcej
Brak chmur poniżej 1500 m i brak chmur cumulonimbus

METAR: LSGC 280820Z 09005KT 030V160 CAVOK 15/03 Q1029

czas: 10:56 (08:56 UTC)

Prognoza

Raport powstał 31 minut temu, godzina 08:25 UTC
Prognoza ważna od 28 godzina 09 UTC do 28 godzina 18 UTC
Wiatr 10 kt od północny wschód
Widzialność 10 km lub więcej
Brak chmur poniżej 1500 m i brak chmur cumulonimbus
Stopniowe zmiany
od 28 godzina 10 UTC do 28 godzina 12 UTC
Widzialność 10 km lub więcej
Mało chmury na wysokości 3000 ft

TAF: LSGC 280825Z 2809/2818 05010KT CAVOK BECMG 2810/2812 9999 FEW030

Obserwacja i prognoza pogody dla ponad 4000 lotnisk (raport METAR i TAF).

Dostępne stacje oznaczono żółtymi i czerwonymi punktami na mapie.

Najedź kursorem aby zobaczyć nazwę stacji.

Kliknij aby zobaczyć obserwacje i prognozy pogody.

Aby zmienić mapę: kliknij na zielony przycisk z czarnym krzyżykiem, aby powiększyć; na zielony przycisk z myślnikiem, aby pomniejszyć; na zielone strzałki, aby przejść do map sąsiednich.


METAR-TAF: